Time;durP1;ratioP1;P1;durP2;ratioP2;P2;SDS_P1;SDS_P2;PMS_P1;PMS_P2;Temp;Humidity;BMP_temperature;BMP_pressure;BME280_temperature;BME280_humidity;BME280_pressure;Samples;Min_cycle;Max_cycle;Signal;HPM_P1;HPM_P2
2022/06/20 00:01:24;;;;;;;1999.90;999.90;;;12.90;76.80;;;;;;4966175;28;20291;-68
2022/06/20 00:03:51;;;;;;;1999.90;999.90;;;12.90;77.00;;;;;;4941289;28;20495;-68
2022/06/20 00:06:21;;;;;;;1999.90;999.90;;;12.90;77.10;;;;;;4965134;28;20798;-68
2022/06/20 00:08:51;;;;;;;1999.90;999.90;;;12.90;77.20;;;;;;4947660;28;20750;-68
2022/06/20 00:11:20;;;;;;;1999.90;999.90;;;12.80;77.10;;;;;;4966347;28;20310;-68
2022/06/20 00:13:49;;;;;;;1921.73;999.90;;;12.80;77.10;;;;;;4967287;28;20324;-68
2022/06/20 00:16:16;;;;;;;1867.53;999.90;;;12.80;77.10;;;;;;4967791;28;20306;-68
2022/06/20 00:18:43;;;;;;;1997.90;999.90;;;12.80;77.10;;;;;;4962132;28;20298;-68
2022/06/20 00:21:15;;;;;;;1800.70;999.90;;;12.70;77.10;;;;;;4941916;29;20742;-68
2022/06/20 00:23:41;;;;;;;1753.03;999.90;;;12.70;77.00;;;;;;4951690;28;20313;-68
2022/06/20 00:26:08;;;;;;;1890.70;999.90;;;12.70;76.90;;;;;;4964098;28;20681;-68
2022/06/20 00:28:34;;;;;;;1950.13;999.90;;;12.70;77.00;;;;;;4968530;28;20305;-68
2022/06/20 00:31:00;;;;;;;1999.90;999.90;;;12.70;77.10;;;;;;4946868;29;20379;-68
2022/06/20 00:33:26;;;;;;;1701.30;999.90;;;12.60;77.00;;;;;;4961645;28;20454;-68
2022/06/20 00:35:53;;;;;;;1659.90;999.90;;;12.60;77.10;;;;;;4951623;28;20302;-68
2022/06/20 00:38:20;;;;;;;1698.63;999.90;;;12.60;77.20;;;;;;4962402;28;20306;-68
2022/06/20 00:40:56;;;;;;;1632.97;999.90;;;12.50;77.20;;;;;;4956329;28;20331;-68
2022/06/20 00:43:45;;;;;;;1671.70;999.90;;;12.50;77.40;;;;;;4979826;28;20687;-67
2022/06/20 00:46:18;;;;;;;1592.90;999.90;;;12.40;77.40;;;;;;4968713;28;20722;-67
2022/06/20 00:49:14;;;;;;;1903.07;999.90;;;12.40;77.50;;;;;;4949236;28;20298;-67
2022/06/20 00:51:47;;;;;;;1664.57;999.90;;;12.30;77.40;;;;;;4955901;28;21172;-67
2022/06/20 00:54:27;;;;;;;1647.83;999.90;;;12.20;77.40;;;;;;4947003;29;20051;-67
2022/06/20 00:57:10;;;;;;;1692.03;999.90;;;12.20;77.40;;;;;;4957791;28;20317;-67
2022/06/20 00:59:43;;;;;;;1627.00;999.90;;;12.10;77.50;;;;;;4963794;28;20794;-68
2022/06/20 01:02:12;;;;;;;1824.07;999.90;;;12.10;77.50;;;;;;4966805;28;20715;-68
2022/06/20 01:04:43;;;;;;;1814.17;999.90;;;12.00;77.60;;;;;;4965146;28;20385;-68
2022/06/20 01:07:16;;;;;;;1822.33;999.90;;;12.00;77.90;;;;;;4948971;28;20766;-68
2022/06/20 01:09:46;;;;;;;1831.50;999.90;;;11.90;78.00;;;;;;4961620;28;20313;-68
2022/06/20 01:12:16;;;;;;;1869.63;999.90;;;11.80;78.40;;;;;;4943120;28;20391;-68
2022/06/20 01:14:41;;;;;;;1851.93;999.90;;;11.80;78.70;;;;;;4967188;28;20337;-68
2022/06/20 01:17:19;;;;;;;1988.60;999.90;;;11.80;78.80;;;;;;4949029;28;20754;-68
2022/06/20 01:19:59;;;;;;;1677.63;999.90;;;11.80;79.00;;;;;;4946740;28;20122;-68
2022/06/20 01:22:49;;;;;;;1848.90;999.90;;;11.70;79.10;;;;;;4966341;28;20302;-68
2022/06/20 01:25:49;;;;;;;1783.73;999.90;;;11.70;79.10;;;;;;4967572;28;20389;-68
2022/06/20 01:28:20;;;;;;;1906.07;999.90;;;11.60;79.00;;;;;;4965549;28;20304;-68
2022/06/20 01:30:47;;;;;;;1835.37;999.90;;;11.50;79.00;;;;;;4953670;28;20852;-68
2022/06/20 01:33:16;;;;;;;1991.70;999.90;;;11.50;79.10;;;;;;4962459;28;20361;-68
2022/06/20 01:38:28;;;;;;;1999.90;999.90;;;11.30;79.60;;;;;;4966345;28;20318;-68
2022/06/20 01:43:39;;;;;;;1985.83;999.90;;;11.10;79.70;;;;;;4965064;28;20345;-68
2022/06/20 01:46:09;;;;;;;1999.90;999.90;;;11.10;79.60;;;;;;4965669;28;20620;-68
2022/06/20 01:48:40;;;;;;;1999.90;999.90;;;11.00;79.80;;;;;;4967528;28;20345;-68
2022/06/20 01:51:16;;;;;;;1999.90;999.90;;;11.00;79.90;;;;;;4947681;28;20361;-68
2022/06/20 01:53:43;;;;;;;1999.90;999.90;;;10.90;80.30;;;;;;4957759;28;20045;-68
2022/06/20 01:56:10;;;;;;;1999.90;999.90;;;10.90;80.80;;;;;;4967321;28;20996;-68
2022/06/20 01:58:40;;;;;;;1999.90;999.90;;;10.80;80.40;;;;;;4950607;28;20063;-68
2022/06/20 02:01:07;;;;;;;1999.90;999.90;;;10.80;80.50;;;;;;4953926;28;20071;-67
2022/06/20 02:03:38;;;;;;;1999.90;999.90;;;10.70;80.50;;;;;;4933889;29;20047;-67
2022/06/20 02:06:04;;;;;;;1999.90;999.90;;;10.70;80.40;;;;;;4949698;28;21200;-67
2022/06/20 02:08:31;;;;;;;1999.90;999.90;;;10.70;80.40;;;;;;4959779;28;20315;-67
2022/06/20 02:11:09;;;;;;;1999.90;999.90;;;10.70;80.80;;;;;;4958797;28;20055;-67
2022/06/20 02:13:41;;;;;;;1999.90;999.90;;;10.60;80.70;;;;;;4966775;28;20062;-68
2022/06/20 02:16:10;;;;;;;1999.90;999.88;;;10.60;81.30;;;;;;4965217;28;20117;-67
2022/06/20 02:18:40;;;;;;;1999.90;999.90;;;10.50;81.20;;;;;;4966497;28;20169;-67
2022/06/20 02:21:10;;;;;;;1999.90;999.90;;;10.50;80.90;;;;;;4963461;28;20113;-67
2022/06/20 02:23:39;;;;;;;1746.20;999.90;;;10.50;80.80;;;;;;4962911;28;20054;-67
2022/06/20 02:26:07;;;;;;;1918.15;999.90;;;10.50;81.00;;;;;;4958728;28;20057;-67
2022/06/20 02:28:47;;;;;;;1991.30;999.90;;;10.40;81.50;;;;;;4966314;28;20054;-67
2022/06/20 02:31:13;;;;;;;1786.38;999.90;;;10.30;81.50;;;;;;4955863;28;20125;-67
2022/06/20 02:33:39;;;;;;;1999.90;999.90;;;10.30;81.70;;;;;;4949381;28;20181;-67
2022/06/20 02:36:06;;;;;;;1999.90;999.90;;;10.30;82.20;;;;;;4964665;28;20403;-67
2022/06/20 02:38:34;;;;;;;1981.80;999.90;;;10.30;82.30;;;;;;4946414;28;20052;-67
2022/06/20 02:41:01;;;;;;;1999.90;999.90;;;10.30;82.50;;;;;;4964939;28;20046;-67
2022/06/20 02:43:41;;;;;;;1999.90;999.90;;;10.30;82.90;;;;;;4960104;28;20114;-67
2022/06/20 02:46:13;;;;;;;1691.47;999.90;;;10.40;83.10;;;;;;4966321;28;20133;-67
2022/06/20 02:48:42;;;;;;;1619.35;999.90;;;10.50;83.20;;;;;;4962664;28;20074;-67
2022/06/20 02:51:12;;;;;;;1498.70;999.90;;;10.50;83.20;;;;;;4966229;28;20047;-67
2022/06/20 02:53:55;;;;;;;1548.78;999.90;;;10.50;82.80;;;;;;4966219;28;20078;-67
2022/06/20 02:56:22;;;;;;;1610.07;999.90;;;10.50;82.50;;;;;;4964829;28;20035;-68
2022/06/20 02:58:52;;;;;;;1651.05;999.90;;;10.40;82.60;;;;;;4949526;28;20042;-67
2022/06/20 03:01:28;;;;;;;1613.60;999.90;;;10.40;82.80;;;;;;4963676;28;20126;-67
2022/06/20 03:03:57;;;;;;;1585.78;999.90;;;10.30;82.70;;;;;;4949324;28;20097;-67
2022/06/20 03:06:37;;;;;;;1527.18;999.90;;;10.30;82.90;;;;;;4943482;28;20105;-67
2022/06/20 03:09:04;;;;;;;1533.30;999.90;;;10.30;83.10;;;;;;4961645;28;20053;-67
2022/06/20 03:11:34;;;;;;;1658.80;999.90;;;10.40;82.80;;;;;;4948537;28;20047;-68
2022/06/20 03:14:03;;;;;;;1859.28;999.90;;;10.40;82.90;;;;;;4953947;28;20095;-68
2022/06/20 03:16:29;;;;;;;1597.95;999.90;;;10.40;82.60;;;;;;4964498;28;20081;-68
2022/06/20 03:18:57;;;;;;;1757.70;999.90;;;10.40;82.90;;;;;;4954500;28;20054;-68
2022/06/20 03:21:27;;;;;;;1690.38;999.90;;;10.40;82.80;;;;;;4946901;28;20085;-67
2022/06/20 03:23:53;;;;;;;1504.22;999.90;;;10.50;83.00;;;;;;4962717;28;20126;-67
2022/06/20 03:26:23;;;;;;;1758.57;999.90;;;10.50;82.80;;;;;;4949712;28;20129;-67
2022/06/20 03:28:50;;;;;;;1845.03;999.90;;;10.60;82.70;;;;;;4961427;28;20304;-68
2022/06/20 03:31:16;;;;;;;1678.15;999.90;;;10.60;82.60;;;;;;4961995;28;20055;-68
2022/06/20 03:33:42;;;;;;;1659.93;999.90;;;10.60;82.30;;;;;;4947835;28;20570;-68
2022/06/20 03:36:19;;;;;;;1728.70;999.90;;;10.60;82.50;;;;;;4941813;28;20070;-68
2022/06/20 03:38:46;;;;;;;1684.78;999.90;;;10.60;82.20;;;;;;4962079;28;20047;-67
2022/06/20 03:41:15;;;;;;;1684.13;999.90;;;10.60;82.30;;;;;;4955635;28;20444;-67
2022/06/20 03:43:45;;;;;;;1784.72;999.90;;;10.60;82.30;;;;;;4963872;28;20047;-68
2022/06/20 03:46:23;;;;;;;1800.60;999.90;;;10.70;82.30;;;;;;4952015;28;20035;-67
2022/06/20 03:49:04;;;;;;;1804.82;999.90;;;10.70;82.30;;;;;;4965199;28;20046;-67
2022/06/20 03:51:40;;;;;;;1866.30;999.90;;;10.70;82.10;;;;;;4957786;28;20042;-67
2022/06/20 03:54:16;;;;;;;1752.80;999.90;;;10.70;81.90;;;;;;4956136;28;20093;-68
2022/06/20 03:56:54;;;;;;;1811.53;999.90;;;10.80;82.00;;;;;;4965370;28;20340;-68
2022/06/20 03:59:34;;;;;;;1913.53;999.90;;;10.80;82.00;;;;;;4963492;28;20051;-68
2022/06/20 04:02:03;;;;;;;1842.13;999.90;;;10.80;82.00;;;;;;4957631;28;20054;-68
2022/06/20 04:04:37;;;;;;;1759.18;999.90;;;10.80;81.70;;;;;;4962539;28;20047;-68
2022/06/20 04:07:08;;;;;;;1704.32;999.90;;;10.80;81.50;;;;;;4937767;28;20089;-68
2022/06/20 04:12:40;;;;;;;1868.75;999.90;;;10.90;81.50;;;;;;4962521;28;20051;-68
2022/06/20 04:15:27;;;;;;;1830.05;999.90;;;10.90;81.60;;;;;;4967399;28;20174;-68
2022/06/20 04:18:27;;;;;;;1996.78;999.90;;;11.00;81.50;;;;;;4968156;28;20295;-68
2022/06/20 04:20:58;;;;;;;1999.90;999.90;;;11.00;81.40;;;;;;4968071;28;20648;-68
2022/06/20 04:23:36;;;;;;;1999.90;999.90;;;11.00;81.40;;;;;;4967576;28;20054;-68
2022/06/20 04:26:20;;;;;;;1999.90;999.90;;;11.10;81.30;;;;;;4965776;28;20050;-68
2022/06/20 04:29:11;;;;;;;1999.90;999.90;;;11.10;81.40;;;;;;4951275;28;20137;-68
2022/06/20 04:31:56;;;;;;;1999.90;999.90;;;11.10;81.30;;;;;;4958215;28;20050;-68
2022/06/20 04:34:45;;;;;;;1999.90;999.90;;;11.20;81.50;;;;;;4966853;28;20053;-68
2022/06/20 04:37:27;;;;;;;1999.90;999.90;;;11.70;82.20;;;;;;4966130;28;20175;-68
2022/06/20 04:40:20;;;;;;;1999.90;999.90;;;12.70;80.60;;;;;;4969274;28;20392;-68
2022/06/20 04:43:14;;;;;;;1999.90;999.90;;;14.00;78.20;;;;;;4963866;28;20038;-68
2022/06/20 04:45:52;;;;;;;1999.90;999.90;;;15.00;74.40;;;;;;4967780;28;20818;-67
2022/06/20 04:48:20;;;;;;;1999.90;999.90;;;15.90;71.90;;;;;;4950070;28;20337;-67
2022/06/20 04:50:49;;;;;;;1999.90;997.27;;;16.70;70.60;;;;;;4950474;28;20303;-68
2022/06/20 04:53:27;;;;;;;1999.90;999.90;;;17.40;67.90;;;;;;4962568;28;20306;-67
2022/06/20 04:55:57;;;;;;;1999.90;999.90;;;18.00;66.70;;;;;;4950987;28;20302;-67
2022/06/20 04:58:44;;;;;;;1999.90;999.90;;;18.40;64.30;;;;;;4955268;28;20309;-67
2022/06/20 05:01:10;;;;;;;1999.90;999.90;;;18.80;63.30;;;;;;4950348;28;20860;-67
2022/06/20 05:03:42;;;;;;;1999.90;999.90;;;19.30;61.80;;;;;;4967297;28;20298;-67
2022/06/20 05:06:16;;;;;;;1999.90;999.90;;;19.60;60.20;;;;;;4963406;28;20051;-67
2022/06/20 05:08:49;;;;;;;1999.90;999.90;;;19.80;58.90;;;;;;4963997;28;20309;-67
2022/06/20 05:11:29;;;;;;;1999.90;999.90;;;19.80;58.90;;;;;;4967186;28;20058;-68
2022/06/20 05:14:07;;;;;;;1999.90;999.90;;;19.90;57.70;;;;;;4966076;28;20783;-68
2022/06/20 05:16:42;;;;;;;1936.37;999.90;;;19.90;57.30;;;;;;4950407;28;20298;-68
2022/06/20 05:19:15;;;;;;;1745.22;999.90;;;20.00;57.20;;;;;;4948504;28;20317;-68
2022/06/20 05:21:45;;;;;;;1903.73;999.90;;;20.00;57.00;;;;;;4967752;28;20042;-68
2022/06/20 05:24:21;;;;;;;1831.33;999.90;;;20.20;56.40;;;;;;4960676;28;20438;-68
2022/06/20 05:26:49;;;;;;;1831.93;999.90;;;20.20;55.60;;;;;;4950877;28;20337;-68
2022/06/20 05:29:27;;;;;;;1911.23;999.90;;;20.30;56.20;;;;;;4963775;28;20306;-68
2022/06/20 05:31:55;;;;;;;1999.90;999.90;;;20.30;56.00;;;;;;4944040;28;20330;-68
2022/06/20 05:34:46;;;;;;;1999.90;999.90;;;20.20;56.30;;;;;;4962009;28;20316;-68
2022/06/20 05:37:31;;;;;;;1986.97;999.90;;;20.50;56.30;;;;;;4947103;28;20310;-68
2022/06/20 05:40:23;;;;;;;1954.28;999.90;;;20.60;55.00;;;;;;4975020;28;20869;-68
2022/06/20 05:42:49;;;;;;;1999.90;999.90;;;20.30;55.20;;;;;;4955759;28;20074;-68
2022/06/20 05:45:17;;;;;;;1999.90;999.90;;;20.40;56.10;;;;;;4966508;28;20342;-68
2022/06/20 05:47:50;;;;;;;1999.90;999.90;;;20.50;56.30;;;;;;4950366;28;20046;-68
2022/06/20 05:50:56;;;;;;;1880.60;999.90;;;20.70;56.20;;;;;;4960280;28;20312;-68
2022/06/20 05:53:44;;;;;;;1924.07;999.90;;;20.90;55.70;;;;;;4948685;28;20345;-68
2022/06/20 05:56:20;;;;;;;1961.33;999.90;;;21.10;55.30;;;;;;4961335;28;20752;-68
2022/06/20 05:58:47;;;;;;;1929.93;999.90;;;21.00;54.60;;;;;;4963548;28;20341;-68
2022/06/20 06:01:18;;;;;;;1999.90;999.90;;;20.80;53.90;;;;;;4965190;28;20389;-68
2022/06/20 06:04:11;;;;;;;1541.67;999.90;;;20.80;53.50;;;;;;4951018;28;20378;-68
2022/06/20 06:06:46;;;;;;;1707.10;999.90;;;20.80;52.70;;;;;;4976807;28;20794;-68
2022/06/20 06:09:21;;;;;;;1856.93;999.90;;;20.70;52.70;;;;;;4964528;28;20329;-69
2022/06/20 06:11:57;;;;;;;;;;;20.60;53.50;;;;;;4966662;28;20109;-68
2022/06/20 06:14:37;;;;;;;1135.20;999.90;;;20.80;53.40;;;;;;4966434;28;19926;-68
2022/06/20 06:17:24;;;;;;;1177.07;999.90;;;20.80;52.20;;;;;;4958688;28;20372;-68
2022/06/20 06:20:03;;;;;;;1285.87;999.90;;;20.70;52.50;;;;;;4949347;28;20805;-68
2022/06/20 06:22:35;;;;;;;1353.40;999.90;;;20.40;51.60;;;;;;4952407;28;20326;-68
2022/06/20 06:25:27;;;;;;;1234.43;999.90;;;19.90;53.00;;;;;;4962328;28;20850;-68
2022/06/20 06:28:04;;;;;;;1177.07;999.90;;;19.10;54.40;;;;;;4958873;28;20484;-68
2022/06/20 06:30:39;;;;;;;1291.40;999.90;;;18.20;56.20;;;;;;4965996;28;20346;-68
2022/06/20 06:33:31;;;;;;;1247.68;999.90;;;18.10;57.80;;;;;;4966608;28;20298;-68
2022/06/20 06:36:07;;;;;;;1320.50;999.90;;;18.60;56.00;;;;;;4960982;28;20507;-68
2022/06/20 06:38:41;;;;;;;1326.60;999.90;;;18.40;56.00;;;;;;4946936;28;20298;-68
2022/06/20 06:41:14;;;;;;;1396.07;999.90;;;18.30;57.40;;;;;;4949810;28;20305;-68
2022/06/20 06:43:45;;;;;;;1321.20;999.90;;;18.60;56.80;;;;;;4966574;28;20755;-68
2022/06/20 06:46:19;;;;;;;1201.67;999.90;;;19.00;56.20;;;;;;4960946;28;20852;-68
2022/06/20 06:49:03;;;;;;;1372.03;999.90;;;19.40;55.30;;;;;;4960764;28;20993;-68
2022/06/20 06:51:35;;;;;;;1248.13;999.90;;;19.80;54.20;;;;;;4943398;28;20042;-68
2022/06/20 06:54:24;;;;;;;1364.73;999.90;;;20.00;54.30;;;;;;4947312;28;20357;-68
2022/06/20 06:56:58;;;;;;;1371.67;999.90;;;19.60;54.60;;;;;;4962575;28;20302;-68
2022/06/20 06:59:32;;;;;;;1278.77;999.90;;;18.60;56.40;;;;;;4939162;28;20299;-68
2022/06/20 07:02:02;;;;;;;1345.93;999.90;;;17.70;58.10;;;;;;4945403;28;20333;-68
2022/06/20 07:04:35;;;;;;;1290.37;999.90;;;17.00;59.80;;;;;;4937292;28;20039;-68
2022/06/20 07:07:31;;;;;;;1280.33;999.90;;;16.90;61.10;;;;;;4957193;28;20333;-68
2022/06/20 07:09:57;;;;;;;1222.43;999.90;;;17.10;60.50;;;;;;4945310;28;20382;-68
2022/06/20 07:12:40;;;;;;;1283.07;999.90;;;17.40;59.30;;;;;;4938020;28;20317;-68
2022/06/20 07:15:12;;;;;;;1181.87;999.90;;;17.50;56.90;;;;;;4941749;28;20341;-68
2022/06/20 07:17:44;;;;;;;1208.47;999.90;;;17.40;57.20;;;;;;4959866;28;20927;-68
2022/06/20 07:20:11;;;;;;;1299.57;999.90;;;17.30;57.80;;;;;;4964935;28;20298;-68
2022/06/20 07:22:40;;;;;;;1273.63;999.90;;;17.20;58.40;;;;;;4935936;28;20765;-68
2022/06/20 07:25:12;;;;;;;1558.53;999.90;;;17.10;58.40;;;;;;4946238;28;20298;-68
2022/06/20 07:27:53;;;;;;;1591.07;999.90;;;17.10;57.20;;;;;;4959542;28;20302;-68
2022/06/20 07:30:23;;;;;;;1558.97;999.90;;;17.10;58.60;;;;;;4965327;28;20628;-68
2022/06/20 07:33:05;;;;;;;1532.93;999.90;;;17.20;59.10;;;;;;4958101;28;20299;-68
2022/06/20 07:35:40;;;;;;;1688.60;999.90;;;17.10;57.70;;;;;;4946996;28;20394;-68
2022/06/20 07:38:12;;;;;;;1600.07;999.90;;;16.80;58.80;;;;;;4950125;28;20348;-68
2022/06/20 07:40:45;;;;;;;1657.23;999.90;;;16.60;59.40;;;;;;4951521;28;20138;-68
2022/06/20 07:43:14;;;;;;;1700.07;999.90;;;16.70;60.70;;;;;;4963111;28;20924;-68
2022/06/20 07:45:47;;;;;;;1633.47;999.90;;;16.80;61.10;;;;;;4959897;28;20302;-68
2022/06/20 07:48:28;;;;;;;1615.33;999.90;;;16.80;60.80;;;;;;4956343;28;20866;-68
2022/06/20 07:51:16;;;;;;;1595.17;999.90;;;16.80;61.00;;;;;;4960014;28;20763;-68
2022/06/20 07:54:03;;;;;;;1516.90;999.90;;;16.90;60.80;;;;;;4968655;28;20777;-68
2022/06/20 07:56:51;;;;;;;1515.43;999.90;;;16.90;59.90;;;;;;4943774;28;20420;-68
2022/06/20 07:59:27;;;;;;;1401.30;999.90;;;17.00;58.90;;;;;;4964790;28;20342;-68
2022/06/20 08:02:06;;;;;;;1516.10;999.90;;;17.00;58.40;;;;;;4948126;28;20848;-68
2022/06/20 08:04:35;;;;;;;1658.53;999.90;;;17.00;59.00;;;;;;4962185;28;20382;-68
2022/06/20 08:07:26;;;;;;;1426.80;999.90;;;17.10;58.10;;;;;;4952333;28;20306;-68
2022/06/20 08:10:00;;;;;;;1562.13;999.90;;;17.30;57.10;;;;;;4968961;28;20369;-68
2022/06/20 08:12:41;;;;;;;1441.72;999.90;;;17.40;57.60;;;;;;4960620;28;20341;-68
2022/06/20 08:15:42;;;;;;;1697.10;999.90;;;17.60;57.50;;;;;;4962417;28;20121;-68
2022/06/20 08:18:07;;;;;;;1628.00;999.90;;;17.80;57.80;;;;;;4954797;28;20333;-68
2022/06/20 08:20:39;;;;;;;1503.27;999.90;;;17.90;57.90;;;;;;4944044;28;20518;-68
2022/06/20 08:23:15;;;;;;;1426.17;999.90;;;17.90;57.80;;;;;;4965022;28;20047;-68
2022/06/20 08:25:47;;;;;;;1491.67;999.90;;;18.10;56.80;;;;;;4949940;28;20360;-68
2022/06/20 08:28:28;;;;;;;1631.03;999.90;;;18.10;56.40;;;;;;4958909;28;20708;-68
2022/06/20 08:30:59;;;;;;;1165.50;999.90;;;17.90;56.40;;;;;;4954511;28;20298;-68
2022/06/20 08:33:34;;;;;;;1181.90;999.90;;;17.80;56.20;;;;;;4938927;28;20315;-68
2022/06/20 08:36:11;;;;;;;1177.40;999.90;;;17.60;56.50;;;;;;4952556;28;20356;-68
2022/06/20 08:38:45;;;;;;;1474.07;999.90;;;17.60;57.20;;;;;;4952570;28;20039;-68
2022/06/20 08:41:37;;;;;;;1537.45;999.90;;;18.00;57.30;;;;;;4960293;28;20312;-68
2022/06/20 08:44:02;;;;;;;1443.20;999.90;;;18.30;56.00;;;;;;4966474;28;20149;-68
2022/06/20 08:47:00;;;;;;;1535.10;999.90;;;18.20;55.60;;;;;;4950003;28;20385;-68
2022/06/20 08:49:59;;;;;;;1693.07;999.90;;;18.20;56.70;;;;;;4935163;28;20057;-68
2022/06/20 08:52:42;;;;;;;1134.27;999.90;;;18.30;57.00;;;;;;4949673;28;20295;-68
2022/06/20 08:55:39;;;;;;;1499.60;999.90;;;18.50;55.80;;;;;;4949572;28;20803;-68
2022/06/20 08:58:16;;;;;;;1162.53;999.90;;;18.80;56.80;;;;;;4966517;28;20309;-68
2022/06/20 09:00:55;;;;;;;1136.20;999.90;;;18.90;54.80;;;;;;4944139;28;20312;-68
2022/06/20 09:03:32;;;;;;;1182.60;999.90;;;18.40;54.70;;;;;;4944028;28;20376;-68
2022/06/20 09:06:27;;;;;;;1157.20;999.90;;;17.90;56.00;;;;;;4955097;28;20670;-68
2022/06/20 09:09:29;;;;;;;1171.70;999.90;;;17.90;57.50;;;;;;4968370;28;20289;-68
2022/06/20 09:12:14;;;;;;;1166.13;999.90;;;18.00;56.30;;;;;;4966707;28;20313;-68
2022/06/20 09:14:49;;;;;;;1142.68;999.90;;;18.30;56.00;;;;;;4946700;28;20361;-68
2022/06/20 09:17:29;;;;;;;1098.72;995.22;;;18.70;56.20;;;;;;4960449;28;20047;-68
2022/06/20 09:20:05;;;;;;;1107.37;998.80;;;18.90;54.60;;;;;;4949294;28;20086;-68
2022/06/20 09:22:50;;;;;;;1165.47;999.90;;;18.90;54.50;;;;;;4966269;28;20844;-68
2022/06/20 09:25:22;;;;;;;1132.22;999.90;;;18.80;54.60;;;;;;4962651;28;20306;-68
2022/06/20 09:28:08;;;;;;;1097.03;994.37;;;18.70;54.40;;;;;;4967590;28;20069;-68
2022/06/20 09:30:49;;;;;;;1209.07;999.90;;;18.80;55.00;;;;;;4967176;28;20302;-68
2022/06/20 09:33:28;;;;;;;1173.97;999.90;;;18.90;54.60;;;;;;4960028;28;20821;-68
2022/06/20 09:36:26;;;;;;;1175.60;999.90;;;19.20;54.50;;;;;;4962055;28;20810;-68
2022/06/20 09:38:58;;;;;;;1124.37;999.90;;;19.50;54.00;;;;;;4962529;28;20392;-68
2022/06/20 09:41:43;;;;;;;1100.50;994.13;;;19.50;54.30;;;;;;4966200;28;20337;-68
2022/06/20 09:44:31;;;;;;;1181.47;999.90;;;19.40;54.00;;;;;;4958093;28;20329;-68
2022/06/20 09:47:36;;;;;;;1163.13;999.90;;;19.40;54.60;;;;;;4941271;28;20300;-68
2022/06/20 09:50:12;;;;;;;1161.20;999.90;;;19.70;54.10;;;;;;4949260;28;20309;-68
2022/06/20 09:53:12;;;;;;;1235.77;999.90;;;19.90;54.00;;;;;;4960325;28;20047;-68
2022/06/20 09:56:00;;;;;;;1162.13;999.90;;;19.80;53.40;;;;;;4951133;28;20347;-68
2022/06/20 09:58:38;;;;;;;1155.93;999.90;;;19.60;53.70;;;;;;4955181;28;20309;-68
2022/06/20 10:01:16;;;;;;;1202.83;999.90;;;19.50;53.90;;;;;;4959659;28;20042;-68
2022/06/20 10:03:53;;;;;;;1132.40;999.90;;;19.60;53.00;;;;;;4961704;28;20333;-68
2022/06/20 10:06:56;;;;;;;1169.57;999.90;;;19.80;52.70;;;;;;4938075;28;20158;-68
2022/06/20 10:09:26;;;;;;;1126.23;999.90;;;19.40;54.30;;;;;;4966376;28;20047;-68
2022/06/20 10:12:08;;;;;;;1207.80;999.90;;;19.00;55.20;;;;;;4958152;28;20074;-68
2022/06/20 10:14:46;;;;;;;1161.07;999.90;;;18.80;56.20;;;;;;4964633;28;20062;-68
2022/06/20 10:17:31;;;;;;;1164.83;999.90;;;19.10;55.30;;;;;;4966349;28;20042;-68
2022/06/20 10:20:17;;;;;;;1116.93;999.90;;;19.40;54.80;;;;;;4963845;28;20298;-68
2022/06/20 10:23:21;;;;;;;1184.00;999.90;;;19.30;54.70;;;;;;4961955;28;20043;-68
2022/06/20 10:26:10;;;;;;;1194.33;999.90;;;19.10;55.30;;;;;;4948524;28;20446;-68
2022/06/20 10:28:58;;;;;;;1164.83;999.90;;;19.30;55.30;;;;;;4944108;28;20301;-68
2022/06/20 10:31:41;;;;;;;1167.83;999.90;;;19.40;54.00;;;;;;4957747;28;20059;-68
2022/06/20 10:34:31;;;;;;;1155.60;999.90;;;19.40;54.70;;;;;;4961566;28;20539;-68
2022/06/20 10:37:18;;;;;;;1092.57;989.70;;;19.50;55.00;;;;;;4943778;28;20043;-68
2022/06/20 10:39:57;;;;;;;1116.70;999.90;;;19.70;54.40;;;;;;4958876;28;20490;-68
2022/06/20 10:42:46;;;;;;;1093.53;988.93;;;19.90;53.50;;;;;;4962731;28;20121;-68
2022/06/20 10:45:47;;;;;;;1118.80;999.90;;;19.70;53.30;;;;;;4942464;28;20630;-68
2022/06/20 10:48:43;;;;;;;1117.43;999.90;;;19.30;54.40;;;;;;4965266;28;20088;-68
2022/06/20 10:51:46;;;;;;;1163.43;999.90;;;19.10;54.20;;;;;;4959481;28;20133;-68
2022/06/20 10:54:15;;;;;;;1123.47;999.90;;;19.20;54.10;;;;;;4959949;28;20294;-68
2022/06/20 10:57:02;;;;;;;1116.47;999.90;;;19.10;54.80;;;;;;4950128;28;20317;-68
2022/06/20 10:59:37;;;;;;;1117.77;999.90;;;19.00;55.10;;;;;;4959690;28;20047;-68
2022/06/20 11:02:17;;;;;;;1067.32;970.10;;;19.00;53.70;;;;;;4961507;28;20290;-68
2022/06/20 11:05:23;;;;;;;1157.03;999.90;;;19.20;53.10;;;;;;4965304;28;20078;-68
2022/06/20 11:08:01;;;;;;;1116.00;995.08;;;19.20;52.20;;;;;;4937714;28;20663;-68
2022/06/20 11:11:06;;;;;;;1101.93;996.50;;;19.50;53.70;;;;;;4980996;28;20072;-68
2022/06/20 11:13:41;;;;;;;1083.67;982.57;;;19.80;51.30;;;;;;4965427;28;20305;-68
2022/06/20 11:16:12;;;;;;;1156.50;999.90;;;19.90;52.30;;;;;;4964132;28;20806;-68
2022/06/20 11:18:38;;;;;;;1114.80;999.90;;;20.20;53.00;;;;;;4955344;28;20330;-68
2022/06/20 11:21:27;;;;;;;1100.43;991.33;;;20.50;52.10;;;;;;4965751;28;20298;-68
2022/06/20 11:24:11;;;;;;;1095.80;990.90;;;20.60;51.00;;;;;;4960611;28;20069;-68
2022/06/20 11:26:42;;;;;;;1097.33;991.63;;;20.30;51.50;;;;;;4968460;28;20043;-68
2022/06/20 11:29:45;;;;;;;1124.47;999.90;;;20.10;52.30;;;;;;4965911;28;20056;-68
2022/06/20 11:32:36;;;;;;;1093.33;990.83;;;20.00;52.90;;;;;;4965115;28;20436;-68
2022/06/20 11:35:19;;;;;;;1077.90;981.20;;;20.10;52.50;;;;;;4960646;28;20042;-68
2022/06/20 11:38:05;;;;;;;1101.37;998.17;;;20.20;52.00;;;;;;4969523;28;20050;-68
2022/06/20 11:41:00;;;;;;;1081.10;976.33;;;20.40;52.00;;;;;;4967842;28;20121;-68
2022/06/20 11:43:44;;;;;;;1121.18;999.90;;;20.40;52.70;;;;;;4948644;28;20097;-68
2022/06/20 11:46:52;;;;;;;1094.80;994.40;;;20.50;51.80;;;;;;4971347;28;20046;-68
2022/06/20 11:49:44;;;;;;;1098.90;998.30;;;20.30;52.00;;;;;;4949559;28;20046;-68
2022/06/20 11:52:22;;;;;;;1085.20;985.63;;;20.10;50.50;;;;;;4965273;28;20602;-68
2022/06/20 11:55:12;;;;;;;1077.73;977.33;;;20.10;51.00;;;;;;4943375;28;20043;-68
2022/06/20 11:57:54;;;;;;;1071.57;974.93;;;19.90;51.00;;;;;;4969220;28;20054;-68
2022/06/20 12:00:32;;;;;;;1090.60;991.47;;;19.80;51.10;;;;;;4967327;28;20045;-68
2022/06/20 12:03:26;;;;;;;1082.13;979.27;;;19.70;51.80;;;;;;4969451;28;20051;-68
2022/06/20 12:06:01;;;;;;;1136.30;999.90;;;19.70;52.30;;;;;;4960682;28;20098;-68
2022/06/20 12:08:50;;;;;;;1088.90;988.40;;;19.50;52.90;;;;;;4964766;28;20053;-68
2022/06/20 12:11:38;;;;;;;1091.37;989.40;;;19.30;53.40;;;;;;4979114;28;20450;-68
2022/06/20 12:14:19;;;;;;;1127.00;999.90;;;19.10;54.40;;;;;;4954806;28;20142;-68
2022/06/20 12:16:47;;;;;;;1126.67;999.90;;;19.00;54.00;;;;;;4954535;28;20507;-68
2022/06/20 12:25:22;;;;;;;1145.40;999.90;;;19.40;52.60;;;;;;4970375;28;20290;-68
2022/06/20 12:27:48;;;;;;;1086.07;987.13;;;19.50;51.30;;;;;;4944466;28;20298;-68
2022/06/20 12:30:16;;;;;;;1097.30;996.47;;;19.60;52.50;;;;;;4955391;28;20306;-68
2022/06/20 12:32:45;;;;;;;1091.40;985.90;;;19.60;52.20;;;;;;4954864;28;20659;-68
2022/06/20 12:35:31;;;;;;;1082.73;980.67;;;19.50;51.70;;;;;;4962766;28;20901;-68
2022/06/20 12:38:13;;;;;;;1131.07;999.90;;;19.60;52.00;;;;;;4954521;28;20969;-68
2022/06/20 12:40:46;;;;;;;1106.50;995.63;;;19.90;52.70;;;;;;4960696;28;20306;-68
2022/06/20 12:43:26;;;;;;;1172.77;999.90;;;20.00;52.30;;;;;;4966606;28;20337;-68
2022/06/20 12:46:00;;;;;;;1167.50;999.90;;;20.00;52.40;;;;;;4967951;28;20301;-68
2022/06/20 12:48:59;;;;;;;1111.93;999.90;;;19.80;53.20;;;;;;4949559;28;20305;-68
2022/06/20 12:51:56;;;;;;;1126.37;999.90;;;19.90;53.30;;;;;;4939746;28;20046;-68
2022/06/20 12:54:53;;;;;;;1093.67;994.50;;;19.80;53.30;;;;;;4976566;28;20306;-68
2022/06/20 12:57:40;;;;;;;1102.40;999.27;;;19.50;52.70;;;;;;4967588;28;20053;-68
2022/06/20 13:00:20;;;;;;;1111.67;999.90;;;19.30;54.00;;;;;;4962751;28;20555;-68
2022/06/20 13:03:13;;;;;;;1172.13;999.90;;;19.50;53.30;;;;;;4966078;28;20338;-68
2022/06/20 13:05:55;;;;;;;1144.23;999.90;;;19.60;52.20;;;;;;4963970;28;20574;-68